Time;durP1;ratioP1;P1;durP2;ratioP2;P2;SDS_P1;SDS_P2;PMS_P1;PMS_P2;Temp;Humidity;BMP_temperature;BMP_pressure;BME280_temperature;BME280_humidity;BME280_pressure;Samples;Min_cycle;Max_cycle;Signal;HPM_P1;HPM_P2
2023/12/09 00:02:09;;;;;;;23.43;16.17;;;;;;;12.07;61.69;98582.72;8362254;23;20298;-74
2023/12/09 00:05:30;;;;;;;19.60;15.13;;;;;;;12.17;61.31;98593.88;8362528;23;20662;-74
2023/12/09 00:08:51;;;;;;;19.60;15.27;;;;;;;12.22;60.97;98584.03;8361078;23;20320;-74
2023/12/09 00:12:13;;;;;;;20.53;14.83;;;;;;;12.23;61.04;98582.97;8362746;23;20228;-74
2023/12/09 00:15:35;;;;;;;22.23;15.67;;;;;;;12.07;61.21;98577.31;8362716;23;20267;-76
2023/12/09 00:18:58;;;;;;;19.80;14.97;;;;;;;12.09;61.02;98589.56;8361773;23;20655;-74
2023/12/09 00:22:19;;;;;;;20.83;15.07;;;;;;;12.11;61.19;98581.25;8362556;23;20208;-75
2023/12/09 00:25:41;;;;;;;22.43;15.07;;;;;;;11.95;61.24;98579.91;8362750;23;20268;-75
2023/12/09 00:29:02;;;;;;;14.17;12.47;;;;;;;12.05;60.92;98582.13;8361294;23;20271;-75
2023/12/09 00:32:24;;;;;;;23.57;15.33;;;;;;;11.74;61.68;98585.66;8362587;23;20228;-75
2023/12/09 00:35:47;;;;;;;18.43;13.73;;;;;;;11.92;61.80;98584.94;8362181;23;20192;-75
2023/12/09 00:39:08;;;;;;;21.57;14.73;;;;;;;12.18;61.16;98582.00;8361614;23;20767;-75
2023/12/09 00:42:30;;;;;;;24.77;14.73;;;;;;;12.33;60.98;98585.22;8361752;23;20206;-75
2023/12/09 00:45:51;;;;;;;18.03;14.13;;;;;;;12.28;60.93;98576.94;8362516;23;20270;-78
2023/12/09 00:49:13;;;;;;;20.63;15.00;;;;;;;12.26;60.58;98574.44;8361432;23;20622;-75
2023/12/09 00:52:37;;;;;;;19.90;14.77;;;;;;;12.44;60.60;98576.34;8362480;23;20262;-75
2023/12/09 00:55:58;;;;;;;17.43;14.10;;;;;;;12.38;60.16;98578.09;8362419;23;20188;-75
2023/12/09 00:59:20;;;;;;;17.70;13.00;;;;;;;12.22;59.97;98572.41;8361457;23;20598;-75
2023/12/09 01:02:41;;;;;;;17.73;13.43;;;;;;;12.13;60.62;98573.72;8361664;23;20302;-75
2023/12/09 01:06:03;;;;;;;17.30;14.23;;;;;;;12.14;60.21;98553.75;8362218;23;20227;-77
2023/12/09 01:09:26;;;;;;;15.23;12.17;;;;;;;12.25;60.38;98583.63;8360523;23;20287;-75
2023/12/09 01:12:47;;;;;;;16.10;13.23;;;;;;;12.32;59.96;98578.13;8361740;23;20634;-74
2023/12/09 01:16:09;;;;;;;18.50;13.40;;;;;;;12.37;59.69;98589.09;8362017;23;20265;-74
2023/12/09 01:19:30;;;;;;;16.43;13.40;;;;;;;12.31;59.83;98593.53;8361852;23;20205;-74
2023/12/09 01:22:52;;;;;;;14.70;11.63;;;;;;;12.45;59.19;98605.06;8363427;23;20331;-75
2023/12/09 01:26:15;;;;;;;14.33;12.33;;;;;;;12.41;59.52;98599.28;8363641;23;20710;-75
2023/12/09 01:29:37;;;;;;;14.40;11.37;;;;;;;12.16;59.98;98609.25;8362656;23;20521;-76
2023/12/09 01:32:58;;;;;;;16.13;12.80;;;;;;;12.19;59.86;98616.09;8363869;23;20305;-75
2023/12/09 01:36:20;;;;;;;19.67;13.33;;;;;;;12.10;60.17;98628.22;8363843;23;20709;-75
2023/12/09 01:39:41;;;;;;;17.47;12.97;;;;;;;12.09;60.21;98634.69;8362347;23;20295;-74
2023/12/09 01:43:08;;;;;;;18.00;13.37;;;;;;;12.08;60.40;98614.94;8363209;23;20272;-75
2023/12/09 01:46:30;;;;;;;20.03;14.20;;;;;;;12.25;59.73;98631.44;8363875;23;20506;-75
2023/12/09 01:49:51;;;;;;;19.03;13.43;;;;;;;12.33;59.10;98639.28;8362458;23;20321;-75
2023/12/09 01:53:13;;;;;;;16.37;13.37;;;;;;;12.19;59.84;98637.72;8361709;23;20256;-75
2023/12/09 01:56:34;;;;;;;19.90;13.80;;;;;;;11.75;60.82;98652.13;8363369;23;20713;-75
2023/12/09 01:59:57;;;;;;;19.33;15.73;;;;;;;11.69;61.64;98649.47;8362881;23;20344;-78
2023/12/09 02:03:19;;;;;;;19.13;15.23;;;;;;;11.55;61.63;98653.22;8363467;23;20288;-77
2023/12/09 02:06:41;;;;;;;20.83;15.97;;;;;;;11.37;62.95;98650.41;8363087;23;20192;-77
2023/12/09 02:10:03;;;;;;;20.57;16.30;;;;;;;11.71;61.71;98656.31;8361135;23;20309;-78
2023/12/09 02:13:31;;;;;;;24.53;17.17;;;;;;;11.86;61.14;98651.44;8363158;23;20192;-77
2023/12/09 02:16:58;;;;;;;20.30;16.10;;;;;;;11.96;60.95;98646.41;8362557;23;20210;-77
2023/12/09 02:20:20;;;;;;;21.07;15.33;;;;;;;11.60;61.75;98657.00;8362309;23;20794;-77
2023/12/09 02:23:43;;;;;;;23.40;16.57;;;;;;;11.75;61.47;98657.53;8362781;23;20239;-77
2023/12/09 02:27:08;;;;;;;26.47;19.97;;;;;;;11.57;62.03;98662.78;8362540;23;20266;-76
2023/12/09 02:30:35;;;;;;;22.13;16.00;;;;;;;11.38;62.03;98642.09;8362100;23;20283;-76
2023/12/09 02:33:57;;;;;;;20.23;15.03;;;;;;;10.59;64.65;98643.34;8363087;23;20202;-75
2023/12/09 02:37:19;;;;;;;40.47;16.50;;;;;;;11.42;63.41;98635.25;8360408;23;20642;-75
2023/12/09 02:40:43;;;;;;;19.90;16.00;;;;;;;11.51;62.20;98622.31;8358616;23;20343;-77
2023/12/09 02:44:05;;;;;;;22.83;15.60;;;;;;;11.47;62.07;98624.63;8360182;23;20260;-75
2023/12/09 02:47:26;;;;;;;19.77;14.57;;;;;;;11.51;62.51;98623.13;8360158;23;20294;-75
2023/12/09 02:50:48;;;;;;;20.10;15.03;;;;;;;11.45;62.89;98598.91;8358915;23;20229;-76
2023/12/09 02:54:09;;;;;;;18.33;15.30;;;;;;;11.42;62.56;98629.00;8363333;23;20196;-77
2023/12/09 02:57:32;;;;;;;21.93;14.23;;;;;;;10.84;64.00;98614.69;8363066;23;20185;-76
2023/12/09 03:00:54;;;;;;;16.77;13.90;;;;;;;11.44;62.58;98608.84;8361917;23;20291;-76
2023/12/09 03:04:15;;;;;;;22.93;14.97;;;;;;;11.09;63.41;98588.66;8362977;23;20269;-76
2023/12/09 03:07:36;;;;;;;19.80;14.47;;;;;;;11.35;62.85;98590.41;8363022;23;20275;-76
2023/12/09 03:10:58;;;;;;;23.33;15.43;;;;;;;11.32;63.54;98588.13;8361486;23;20226;-76
2023/12/09 03:14:22;;;;;;;23.63;14.47;;;;;;;11.28;62.95;98592.34;8363098;23;20212;-76
2023/12/09 03:17:44;;;;;;;18.00;14.13;;;;;;;11.08;64.33;98588.88;8363136;23;20206;-75
2023/12/09 03:21:06;;;;;;;19.40;14.43;;;;;;;11.17;64.12;98572.22;8362674;23;20513;-76
2023/12/09 03:24:27;;;;;;;18.67;13.83;;;;;;;11.51;62.97;98573.72;8364410;23;20669;-76
2023/12/09 03:27:49;;;;;;;18.67;13.30;;;;;;;11.77;61.93;98562.78;8363964;23;20192;-77
2023/12/09 03:31:13;;;;;;;17.60;14.50;;;;;;;11.64;61.98;98571.78;8362162;23;20302;-77
2023/12/09 03:34:34;;;;;;;18.57;14.00;;;;;;;11.86;61.61;98569.59;8362784;23;20216;-76
2023/12/09 03:37:56;;;;;;;18.00;12.63;;;;;;;12.05;61.06;98569.41;8362655;23;20623;-76
2023/12/09 03:41:17;;;;;;;17.57;14.33;;;;;;;11.33;61.64;98587.94;8361476;23;20240;-76
2023/12/09 03:44:39;;;;;;;22.37;14.93;;;;;;;10.60;64.67;98580.31;8361836;23;20268;-77
2023/12/09 03:48:02;;;;;;;28.00;12.83;;;;;;;10.91;63.04;98525.66;8362175;23;20232;-76
2023/12/09 03:51:23;;;;;;;18.57;13.17;;;;;;;11.01;63.25;98567.34;8361824;23;20290;-77
2023/12/09 03:54:45;;;;;;;18.77;13.80;;;;;;;10.88;63.79;98558.44;8360752;23;20320;-76
2023/12/09 03:58:06;;;;;;;15.87;11.70;;;;;;;11.36;62.67;98555.13;8362454;23;20276;-77
2023/12/09 04:01:28;;;;;;;15.57;11.73;;;;;;;11.71;61.90;98558.25;8361129;23;20294;-77
2023/12/09 04:04:51;;;;;;;14.50;11.57;;;;;;;11.65;61.73;98543.75;8362070;23;20301;-76
2023/12/09 04:08:12;;;;;;;14.53;10.27;;;;;;;11.66;61.45;98569.72;8362291;23;20756;-77
2023/12/09 04:11:34;;;;;;;19.43;11.17;;;;;;;11.18;61.75;98567.66;8362194;23;20336;-76
2023/12/09 04:14:55;;;;;;;17.67;11.17;;;;;;;11.05;61.96;98562.34;8362331;23;20617;-76
2023/12/09 04:18:17;;;;;;;18.23;12.27;;;;;;;10.96;62.26;98563.59;8361298;23;20220;-76
2023/12/09 04:21:40;;;;;;;15.13;9.83;;;;;;;11.08;62.27;98551.09;8362043;23;20267;-77
2023/12/09 04:25:04;;;;;;;21.53;11.33;;;;;;;11.15;62.37;98550.03;8361824;23;20186;-76
2023/12/09 04:28:26;;;;;;;17.33;10.83;;;;;;;11.23;61.77;98559.75;8361230;23;20189;-76
2023/12/09 04:31:47;;;;;;;14.50;10.23;;;;;;;11.30;61.28;98572.19;8362107;23;20755;-75
2023/12/09 04:35:09;;;;;;;12.47;9.90;;;;;;;11.45;61.15;98585.41;8362467;23;20189;-76
2023/12/09 04:38:32;;;;;;;15.50;11.20;;;;;;;11.35;60.48;98580.47;8374275;23;20207;-77
2023/12/09 04:41:53;;;;;;;15.27;11.43;;;;;;;11.05;60.26;98598.22;8361607;23;20262;-76
2023/12/09 04:45:15;;;;;;;19.57;11.87;;;;;;;11.02;60.80;98590.56;8362654;23;20216;-77
2023/12/09 04:48:36;;;;;;;15.13;11.50;;;;;;;10.95;61.04;98580.81;8367313;23;20216;-77
2023/12/09 04:51:58;;;;;;;15.80;10.67;;;;;;;10.95;61.05;98587.06;8364468;23;20637;-76
2023/12/09 04:55:21;;;;;;;15.07;10.57;;;;;;;10.92;61.63;98586.66;8362917;23;20274;-76
2023/12/09 04:58:42;;;;;;;14.50;10.47;;;;;;;11.00;61.13;98589.97;8362712;23;20259;-76
2023/12/09 05:02:04;;;;;;;16.00;10.07;;;;;;;10.89;60.90;98582.53;8363578;23;20242;-76
2023/12/09 05:05:26;;;;;;;15.13;9.53;;;;;;;10.90;60.99;98603.06;8363945;23;20777;-77
2023/12/09 05:08:47;;;;;;;16.77;10.13;;;;;;;10.34;61.78;98579.53;8362938;23;20217;-77
2023/12/09 05:12:10;;;;;;;12.80;10.23;;;;;;;10.46;61.28;98596.72;8363982;23;20683;-76
2023/12/09 05:15:32;;;;;;;15.17;10.80;;;;;;;10.58;61.54;98595.03;8364024;23;20192;-77
2023/12/09 05:18:53;;;;;;;16.10;10.43;;;;;;;10.39;61.48;98567.06;8363213;23;20214;-76
2023/12/09 05:22:15;;;;;;;18.47;11.43;;;;;;;10.27;61.73;98538.28;8363679;23;20256;-76
2023/12/09 05:25:36;;;;;;;16.00;12.07;;;;;;;10.07;63.13;98564.41;8362695;23;20189;-75
2023/12/09 05:28:59;;;;;;;18.97;11.67;;;;;;;10.06;62.93;98566.28;8362535;23;20268;-77
2023/12/09 05:32:21;;;;;;;16.90;11.63;;;;;;;10.33;63.02;98561.72;8363696;23;20306;-77
2023/12/09 05:35:42;;;;;;;14.23;11.17;;;;;;;10.39;63.20;98548.22;8363325;23;20317;-76
2023/12/09 05:39:05;;;;;;;16.23;11.60;;;;;;;10.48;63.38;98564.97;8363163;23;20186;-77
2023/12/09 05:42:26;;;;;;;17.33;12.20;;;;;;;10.41;64.21;98558.78;8362928;23;20262;-77
2023/12/09 05:45:49;;;;;;;14.03;9.63;;;;;;;9.99;64.69;98554.63;8363597;23;20185;-77
2023/12/09 05:49:11;;;;;;;15.20;8.40;;;;;;;10.75;63.52;98550.41;8362296;23;20219;-76
2023/12/09 05:52:32;;;;;;;13.27;8.67;;;;;;;10.98;62.91;98539.97;8361998;23;20202;-78
2023/12/09 05:55:53;;;;;;;12.67;10.03;;;;;;;10.38;62.82;98537.63;8363699;23;20602;-77
2023/12/09 05:59:15;;;;;;;12.50;9.60;;;;;;;10.91;62.65;98539.97;8362398;23;20314;-77
2023/12/09 06:02:39;;;;;;;11.07;9.07;;;;;;;10.99;61.16;98525.41;8363781;23;20672;-77
2023/12/09 06:06:01;;;;;;;14.00;8.87;;;;;;;11.00;61.79;98532.47;8363377;23;20829;-77
2023/12/09 06:09:22;;;;;;;11.97;7.07;;;;;;;10.89;61.73;98522.34;8362439;23;20272;-78
2023/12/09 06:12:44;;;;;;;9.00;6.67;;;;;;;11.15;62.13;98541.94;8363656;23;20214;-76
2023/12/09 06:16:06;;;;;;;8.93;7.43;;;;;;;11.20;61.30;98536.72;8363091;23;20265;-75
2023/12/09 06:19:28;;;;;;;11.60;8.53;;;;;;;10.76;61.55;98538.59;8362610;23;20263;-77
2023/12/09 06:22:50;;;;;;;13.20;9.27;;;;;;;10.52;62.34;98532.00;8362914;23;20209;-76
2023/12/09 06:26:11;;;;;;;13.33;9.00;;;;;;;10.61;62.49;98538.84;8363606;23;20189;-78
2023/12/09 06:29:35;;;;;;;15.10;8.97;;;;;;;10.91;61.07;98534.56;8355910;23;20231;-76
2023/12/09 06:32:56;;;;;;;17.60;11.07;;;;;;;10.60;62.30;98523.69;8355097;23;20190;-75
2023/12/09 06:36:19;;;;;;;14.77;10.07;;;;;;;10.87;62.07;98529.84;8355146;23;20268;-77
2023/12/09 06:39:40;;;;;;;16.40;12.27;;;;;;;10.23;62.93;98529.81;8357964;23;20266;-78
2023/12/09 06:43:02;;;;;;;22.10;11.93;;;;;;;10.75;62.41;98520.75;8360560;23;20344;-77
2023/12/09 06:46:23;;;;;;;19.43;12.43;;;;;;;10.46;62.54;98524.75;8363360;23;20190;-77
2023/12/09 06:49:45;;;;;;;18.50;13.53;;;;;;;10.38;63.30;98521.47;8361815;23;20303;-77
2023/12/09 06:53:12;;;;;;;22.30;14.20;;;;;;;10.45;63.40;98523.09;8361986;23;20749;-78
2023/12/09 06:56:33;;;;;;;21.37;12.50;;;;;;;10.61;62.79;98511.03;8362610;23;20255;-77
2023/12/09 06:59:56;;;;;;;18.40;12.80;;;;;;;10.95;61.91;98498.06;8358796;23;20285;-77
2023/12/09 07:03:17;;;;;;;15.87;12.53;;;;;;;10.52;62.00;98482.66;8362352;23;20210;-77
2023/12/09 07:06:39;;;;;;;18.13;10.83;;;;;;;10.83;62.06;98515.09;8365024;23;20256;-76
2023/12/09 07:10:05;;;;;;;16.03;9.83;;;;;;;10.97;61.90;98514.00;8353112;23;20212;-76
2023/12/09 07:13:26;;;;;;;14.60;10.43;;;;;;;11.13;61.77;98500.88;8358251;23;20653;-77
2023/12/09 07:16:48;;;;;;;11.43;7.07;;;;;;;10.16;63.85;98510.09;8360137;23;20267;-76
2023/12/09 07:20:10;;;;;;;13.13;7.20;;;;;;;11.08;62.70;98497.97;8356112;23;20286;-76
2023/12/09 07:23:32;;;;;;;10.50;7.20;;;;;;;11.21;61.78;98507.88;8361824;23;20206;-76
2023/12/09 07:26:54;;;;;;;8.37;5.80;;;;;;;11.14;61.74;98515.16;8362739;23;20263;-75
2023/12/09 07:30:16;;;;;;;8.50;5.17;;;;;;;11.12;61.21;98514.56;8375097;23;20248;-76
2023/12/09 07:33:38;;;;;;;8.07;5.50;;;;;;;11.51;60.41;98514.34;8362588;23;20185;-77
2023/12/09 07:36:59;;;;;;;26.07;13.83;;;;;;;11.72;59.88;98520.22;8360804;23;20201;-76
2023/12/09 07:40:21;;;;;;;13.90;9.00;;;;;;;11.64;59.41;98522.38;8361669;23;20332;-77
2023/12/09 07:43:44;;;;;;;13.87;8.00;;;;;;;11.67;59.43;98524.63;8362444;23;20212;-77
2023/12/09 07:47:05;;;;;;;10.83;7.63;;;;;;;11.17;61.15;98542.53;8362102;23;20741;-77
2023/12/09 07:50:27;;;;;;;12.33;6.73;;;;;;;11.36;61.09;98535.41;8362059;23;20586;-77
2023/12/09 07:53:48;;;;;;;9.17;6.20;;;;;;;11.66;59.79;98515.72;8361516;23;20207;-78
2023/12/09 07:57:10;;;;;;;9.50;6.80;;;;;;;11.81;59.19;98526.19;8363005;23;20220;-76
2023/12/09 08:00:33;;;;;;;10.97;7.87;;;;;;;11.72;59.19;98520.22;8361831;23;20299;-74
2023/12/09 08:03:54;;;;;;;14.47;9.40;;;;;;;11.44;60.35;98522.47;8362955;23;20302;-74
2023/12/09 08:07:16;;;;;;;13.87;9.33;;;;;;;11.01;61.72;98516.06;8362377;23;20259;-74
2023/12/09 08:10:37;;;;;;;12.20;8.30;;;;;;;11.30;61.87;98517.38;8362098;23;20204;-75
2023/12/09 08:13:58;;;;;;;9.53;6.60;;;;;;;11.71;60.16;98499.69;8361978;23;20322;-78
2023/12/09 08:17:21;;;;;;;11.23;5.67;;;;;;;11.86;59.35;98502.06;8363126;23;20691;-79
2023/12/09 08:20:43;;;;;;;8.83;4.70;;;;;;;11.74;59.24;98488.44;8360786;23;20642;-79
2023/12/09 08:24:05;;;;;;;6.30;4.50;;;;;;;11.80;58.87;98484.84;8363732;23;20259;-77
2023/12/09 08:27:26;;;;;;;4.33;3.90;;;;;;;11.93;58.30;98478.50;8364158;23;20285;-78
2023/12/09 08:30:48;;;;;;;6.97;4.80;;;;;;;11.93;58.28;98470.41;8364211;23;20248;-79
2023/12/09 08:34:11;;;;;;;6.63;4.70;;;;;;;12.08;58.01;98465.47;8366246;23;20639;-78
2023/12/09 08:37:32;;;;;;;8.50;5.00;;;;;;;12.08;57.78;98474.41;8366372;23;20213;-78
2023/12/09 08:40:54;;;;;;;5.93;4.17;;;;;;;12.02;57.67;98460.94;8364220;23;20288;-79
2023/12/09 08:44:16;;;;;;;7.63;4.57;;;;;;;12.30;57.35;98464.00;8363373;23;20245;-77
2023/12/09 08:47:38;;;;;;;8.60;5.07;;;;;;;12.27;58.22;98464.47;8363584;23;20212;-77
2023/12/09 08:51:00;;;;;;;7.87;4.17;;;;;;;13.18;55.15;98474.19;8361343;23;20232;-77
2023/12/09 08:54:22;;;;;;;5.33;4.13;;;;;;;13.01;54.92;98483.97;8362681;23;20264;-76
2023/12/09 08:57:43;;;;;;;8.07;4.70;;;;;;;12.58;55.82;98483.25;8362138;23;20271;-78
2023/12/09 09:01:05;;;;;;;7.30;5.13;;;;;;;12.75;55.39;98476.19;8362121;23;20694;-79
2023/12/09 09:04:26;;;;;;;6.43;4.53;;;;;;;12.21;57.30;98470.75;8362054;23;20674;-76
2023/12/09 09:07:49;;;;;;;6.93;4.40;;;;;;;12.16;57.35;98468.72;8361856;23;20263;-75
2023/12/09 09:11:12;;;;;;;6.63;4.23;;;;;;;12.01;57.62;98452.03;8361383;23;20209;-79
2023/12/09 09:14:33;;;;;;;5.40;4.10;;;;;;;12.36;56.93;98457.69;8360655;23;20263;-77
2023/12/09 09:17:55;;;;;;;28.33;14.07;;;;;;;11.67;58.33;98457.94;8361936;23;20351;-75
2023/12/09 09:21:17;;;;;;;6.73;5.80;;;;;;;12.15;57.48;98453.56;8360409;23;20206;-75
2023/12/09 09:24:40;;;;;;;28.80;14.27;;;;;;;11.89;57.94;98447.56;8361972;23;20205;-76
2023/12/09 09:28:02;;;;;;;6.57;4.07;;;;;;;12.42;57.00;98440.56;8359614;23;20713;-75
2023/12/09 09:31:24;;;;;;;5.87;3.47;;;;;;;12.15;56.78;98437.34;8360796;23;20252;-75
2023/12/09 09:34:45;;;;;;;5.70;3.77;;;;;;;12.24;57.09;98437.88;8361684;23;20205;-75
2023/12/09 09:38:07;;;;;;;7.00;4.33;;;;;;;12.28;56.91;98449.91;8360023;23;20239;-77
2023/12/09 09:41:32;;;;;;;6.60;4.17;;;;;;;12.21;56.94;98431.03;8316827;23;1062834;-76
2023/12/09 09:45:00;;;;;;;6.77;4.40;;;;;;;12.24;56.89;98429.75;8363090;23;20269;-76
2023/12/09 09:48:25;;;;;;;7.63;4.53;;;;;;;12.47;55.98;98413.69;8361475;23;20176;-76
2023/12/09 09:51:51;;;;;;;6.83;4.20;;;;;;;12.40;56.07;98407.53;8364650;23;20443;-77
2023/12/09 09:55:13;;;;;;;4.83;3.63;;;;;;;12.42;55.81;98400.88;8364515;23;20801;-76
2023/12/09 09:58:36;;;;;;;6.27;3.37;;;;;;;12.21;56.58;98387.78;8363175;23;20216;-77
2023/12/09 10:01:58;;;;;;;6.07;3.93;;;;;;;12.38;56.29;98396.94;8363502;23;20742;-77
2023/12/09 10:05:20;;;;;;;7.13;3.77;;;;;;;12.49;56.20;98395.34;8362234;23;20216;-77
2023/12/09 10:08:43;;;;;;;5.63;3.40;;;;;;;12.40;55.97;98384.03;8361446;23;20186;-77
2023/12/09 10:12:05;;;;;;;4.00;3.43;;;;;;;12.38;56.15;98386.13;8360148;23;20221;-77
2023/12/09 10:15:27;;;;;;;3.37;3.07;;;;;;;12.33;56.42;98385.19;8360519;23;20228;-78
2023/12/09 10:18:49;;;;;;;3.70;3.40;;;;;;;12.39;56.20;98362.66;8359416;23;20662;-76
2023/12/09 10:22:10;;;;;;;6.57;3.90;;;;;;;12.28;56.23;98366.91;8360382;23;20241;-79
2023/12/09 10:25:32;;;;;;;5.27;3.37;;;;;;;12.33;55.93;98366.25;8361432;23;20287;-77
2023/12/09 10:28:54;;;;;;;4.03;3.67;;;;;;;12.17;56.49;98353.34;8362744;23;20213;-78
2023/12/09 10:32:17;;;;;;;5.37;3.87;;;;;;;12.32;55.99;98324.88;8363327;23;20746;-79
2023/12/09 10:35:39;;;;;;;6.07;3.77;;;;;;;12.27;56.02;98323.91;8364497;23;20652;-80
2023/12/09 10:39:00;;;;;;;4.30;3.20;;;;;;;12.40;56.26;98337.25;8364029;23;20182;-79
2023/12/09 10:42:23;;;;;;;5.33;3.80;;;;;;;12.40;56.32;98326.44;8364665;23;20225;-80
2023/12/09 10:45:45;;;;;;;5.10;3.03;;;;;;;12.43;56.62;98309.75;8364878;23;20186;-78
2023/12/09 10:49:08;;;;;;;4.40;3.10;;;;;;;12.69;56.64;98303.97;8364983;23;20270;-80
2023/12/09 10:52:29;;;;;;;4.43;3.20;;;;;;;12.68;55.55;98292.31;8364833;23;20224;-78
2023/12/09 10:55:51;;;;;;;3.93;3.30;;;;;;;12.99;55.75;98283.16;8365530;23;20181;-79
2023/12/09 10:59:14;;;;;;;3.40;3.10;;;;;;;12.61;55.35;98278.09;8363951;23;20283;-78
2023/12/09 11:02:36;;;;;;;3.97;3.20;;;;;;;13.36;54.71;98290.84;8365783;23;20228;-81
2023/12/09 11:06:00;;;;;;;3.20;2.90;;;;;;;13.10;53.49;98279.63;8365146;23;20639;-78
2023/12/09 11:09:22;;;;;;;3.23;2.80;;;;;;;13.06;53.81;98267.63;8363827;23;20186;-79
2023/12/09 11:12:44;;;;;;;4.20;3.10;;;;;;;13.50;54.37;98264.31;8365179;23;20221;-79
2023/12/09 11:16:09;;;;;;;3.40;3.20;;;;;;;13.99;53.39;98234.78;8365944;23;20188;-79
2023/12/09 11:19:31;;;;;;;3.60;3.30;;;;;;;14.04;52.87;98237.59;8365796;23;20217;-81
2023/12/09 11:22:54;;;;;;;3.77;3.37;;;;;;;13.74;53.12;98223.44;8378001;23;20343;-81
2023/12/09 11:26:19;;;;;;;3.27;3.00;;;;;;;12.66;54.77;98199.78;8364214;23;20268;-78
2023/12/09 11:29:41;;;;;;;3.07;2.87;;;;;;;12.78;55.23;98197.09;8363410;23;20667;-77
2023/12/09 11:33:03;;;;;;;3.30;3.00;;;;;;;12.59;55.19;98179.31;8363930;23;20276;-79
2023/12/09 11:36:25;;;;;;;3.10;2.80;;;;;;;13.09;54.07;98162.44;8363253;23;20268;-79
2023/12/09 11:39:48;;;;;;;3.00;2.80;;;;;;;13.55;52.73;98159.66;8363828;23;20339;-79
2023/12/09 11:43:10;;;;;;;4.20;3.20;;;;;;;13.29;53.90;98157.44;8372638;23;20213;-79
2023/12/09 11:46:32;;;;;;;4.13;3.03;;;;;;;13.89;52.24;98152.47;8371980;23;20232;-79
2023/12/09 11:49:53;;;;;;;4.17;3.60;;;;;;;13.34;54.15;98162.16;8369265;23;20206;-78
2023/12/09 11:53:15;;;;;;;3.50;3.20;;;;;;;13.85;52.23;98135.03;8370433;23;20237;-78
2023/12/09 11:56:39;;;;;;;3.63;3.20;;;;;;;13.59;53.12;98114.78;8368700;23;20713;-78
2023/12/09 12:00:01;;;;;;;3.80;3.00;;;;;;;13.81;52.69;98085.13;8366790;23;20287;-78
2023/12/09 12:03:22;;;;;;;3.47;3.07;;;;;;;13.79;52.29;98057.44;8366871;23;20278;-78
2023/12/09 12:06:44;;;;;;;4.20;3.10;;;;;;;14.05;51.59;98084.75;8368278;23;20228;-78
2023/12/09 12:10:07;;;;;;;3.20;2.67;;;;;;;13.91;52.04;98086.13;8367118;23;20260;-79
2023/12/09 12:13:30;;;;;;;3.40;3.10;;;;;;;13.93;51.76;98075.06;8366366;23;20272;-79
2023/12/09 12:16:51;;;;;;;3.17;2.97;;;;;;;13.81;52.22;98066.97;8367540;23;20186;-79
2023/12/09 12:20:13;;;;;;;3.37;2.80;;;;;;;13.53;52.34;98028.25;8366342;23;20547;-79
2023/12/09 12:23:35;;;;;;;2.60;2.40;;;;;;;13.78;52.02;98058.50;8366564;23;20208;-79
2023/12/09 12:26:56;;;;;;;3.33;3.03;;;;;;;13.98;52.01;98059.69;8367671;23;20181;-78
2023/12/09 12:30:19;;;;;;;3.33;2.57;;;;;;;13.96;51.25;98042.84;8366280;23;20206;-80
2023/12/09 12:33:41;;;;;;;2.63;2.43;;;;;;;13.80;51.37;98042.84;8365607;23;20300;-78
2023/12/09 12:37:03;;;;;;;2.63;2.40;;;;;;;13.33;51.84;98046.81;8366960;23;20193;-80
2023/12/09 12:40:26;;;;;;;2.60;2.40;;;;;;;13.32;52.28;98035.16;8364330;23;20519;-81
2023/12/09 12:43:48;;;;;;;2.60;2.40;;;;;;;13.63;51.02;98025.75;8363423;23;20205;-80
2023/12/09 12:47:10;;;;;;;2.40;2.20;;;;;;;13.83;50.44;98009.81;8364743;23;20514;-79
2023/12/09 12:50:32;;;;;;;2.97;2.77;;;;;;;13.87;51.05;97998.25;8362795;23;20206;-80
2023/12/09 12:53:54;;;;;;;2.13;2.03;;;;;;;13.33;51.18;97985.34;8359624;23;20194;-79
2023/12/09 12:57:15;;;;;;;2.30;2.10;;;;;;;13.84;50.59;97981.66;8363194;23;20192;-77
2023/12/09 13:00:37;;;;;;;2.73;2.50;;;;;;;14.23;49.94;97975.28;8361201;23;20674;-79
2023/12/09 13:04:00;;;;;;;2.50;2.30;;;;;;;14.14;49.94;97952.34;8362533;23;20202;-79
2023/12/09 13:07:21;;;;;;;3.10;2.47;;;;;;;13.79;50.37;97949.06;8363201;23;20193;-79
2023/12/09 13:10:43;;;;;;;2.30;2.10;;;;;;;13.58;50.99;97961.44;8360661;23;20531;-81
2023/12/09 13:14:05;;;;;;;2.47;2.27;;;;;;;13.56;50.53;97944.63;8362349;23;20619;-77
2023/12/09 13:17:27;;;;;;;2.30;2.10;;;;;;;13.54;51.29;97949.47;8364822;23;20189;-79
2023/12/09 13:20:52;;;;;;;2.43;2.23;;;;;;;13.72;50.80;97937.56;8361757;23;20537;-79
2023/12/09 13:24:13;;;;;;;2.67;2.47;;;;;;;13.58;51.37;97936.25;8363253;23;20210;-76
2023/12/09 13:27:36;;;;;;;3.63;2.50;;;;;;;13.60;51.05;97937.66;8361750;23;20182;-76
2023/12/09 13:30:57;;;;;;;2.80;2.60;;;;;;;13.15;51.54;97933.31;8362278;23;20205;-77
2023/12/09 13:34:19;;;;;;;2.67;2.47;;;;;;;13.36;51.72;97906.38;8362312;23;20182;-76
2023/12/09 13:37:42;;;;;;;2.50;2.30;;;;;;;13.44;51.28;97886.19;8363555;23;20499;-78
2023/12/09 13:41:05;;;;;;;2.80;2.60;;;;;;;12.57;53.42;97871.28;8359219;23;20218;-76
2023/12/09 13:44:27;;;;;;;2.87;2.50;;;;;;;13.11;51.38;97869.91;8362822;23;20212;-76
2023/12/09 13:47:48;;;;;;;2.40;2.20;;;;;;;13.34;51.07;97846.22;8362755;23;20193;-77
2023/12/09 13:51:10;;;;;;;4.73;2.80;;;;;;;13.32;50.83;97859.19;8359849;23;20205;-77
2023/12/09 13:54:33;;;;;;;3.10;2.50;;;;;;;13.32;51.02;97871.91;8360147;23;20178;-77
2023/12/09 13:57:55;;;;;;;3.13;2.83;;;;;;;13.22;51.03;97841.97;8360352;23;20217;-76
2023/12/09 14:01:17;;;;;;;3.67;2.63;;;;;;;13.13;52.10;97816.34;8359853;23;20206;-77
2023/12/09 14:04:38;;;;;;;3.00;2.80;;;;;;;13.48;51.31;97816.94;8361892;23;20205;-76
2023/12/09 14:08:00;;;;;;;3.30;3.00;;;;;;;13.35;51.03;97801.03;8362824;23;20186;-76
2023/12/09 14:11:25;;;;;;;4.63;3.10;;;;;;;13.23;51.72;97813.81;8362352;23;20217;-76
2023/12/09 14:14:47;;;;;;;4.90;3.83;;;;;;;13.30;51.38;97807.19;8363279;23;20246;-77
2023/12/09 14:18:08;;;;;;;4.20;3.80;;;;;;;13.12;51.58;97799.31;8362421;23;20186;-76
2023/12/09 14:21:30;;;;;;;3.90;3.40;;;;;;;13.11;52.11;97797.66;8362029;23;20213;-76
2023/12/09 14:24:51;;;;;;;3.40;3.10;;;;;;;13.16;51.84;97778.00;8363171;23;20201;-77
2023/12/09 14:28:15;;;;;;;3.70;3.33;;;;;;;13.33;51.25;97803.19;8362450;23;20197;-77
2023/12/09 14:31:37;;;;;;;3.87;3.40;;;;;;;12.47;53.03;97781.88;8363079;23;20721;-76
2023/12/09 14:34:59;;;;;;;3.50;3.20;;;;;;;13.05;52.38;97760.75;8363081;23;20240;-79
2023/12/09 14:38:20;;;;;;;4.23;3.83;;;;;;;12.78;53.08;97764.31;8363231;23;20182;-78
2023/12/09 14:41:42;;;;;;;3.67;3.37;;;;;;;12.75;52.76;97738.56;8364774;23;20213;-79
2023/12/09 14:45:06;;;;;;;4.07;3.67;;;;;;;12.56;53.27;97772.31;8365198;23;20693;-79
2023/12/09 14:48:27;;;;;;;4.10;3.70;;;;;;;12.49;53.56;97774.34;8363470;23;20193;-79
2023/12/09 14:51:49;;;;;;;4.27;3.87;;;;;;;13.02;53.15;97782.06;8365230;23;20530;-78
2023/12/09 14:55:10;;;;;;;4.37;3.97;;;;;;;13.07;52.56;97760.50;8365620;23;20189;-78
2023/12/09 14:58:33;;;;;;;4.63;3.97;;;;;;;13.02;52.36;97749.59;8364883;23;20190;-80
2023/12/09 15:01:56;;;;;;;7.03;3.90;;;;;;;12.57;52.90;97736.09;8365277;23;20709;-78
2023/12/09 15:05:17;;;;;;;5.17;4.67;;;;;;;12.67;51.99;97695.72;8364279;23;20209;-79
2023/12/09 15:08:39;;;;;;;4.53;4.00;;;;;;;12.63;52.43;97721.59;8363922;23;20855;-78
2023/12/09 15:12:00;;;;;;;4.60;4.13;;;;;;;13.00;52.42;97701.16;8363618;23;20592;-78
2023/12/09 15:15:22;;;;;;;4.47;3.97;;;;;;;12.73;51.89;97689.31;8363741;23;20178;-79
2023/12/09 15:18:45;;;;;;;4.67;4.00;;;;;;;12.76;52.43;97669.09;8361385;23;20190;-78
2023/12/09 15:22:06;;;;;;;4.90;3.90;;;;;;;12.82;52.89;97668.94;8363169;23;20243;-79
2023/12/09 15:25:29;;;;;;;4.67;4.03;;;;;;;12.81;52.10;97653.75;8363495;23;20202;-78
2023/12/09 15:28:53;;;;;;;4.30;3.90;;;;;;;12.52;52.73;97646.78;8364543;23;20654;-77
2023/12/09 15:32:14;;;;;;;4.57;3.53;;;;;;;12.75;52.50;97643.13;8363205;23;20237;-79
2023/12/09 15:35:37;;;;;;;5.83;4.33;;;;;;;12.28;54.11;97642.59;8364049;23;20187;-79
2023/12/09 15:38:59;;;;;;;5.73;5.00;;;;;;;12.39;53.04;97622.78;8362614;23;20192;-79
2023/12/09 15:42:21;;;;;;;6.57;5.57;;;;;;;12.42;53.43;97605.25;8362956;23;20212;-79